sensor_id;sensor_type;location;lat;lon;timestamp;P1;durP1;ratioP1;P2;durP2;ratioP2
10550;SDS011;5324;50.684;3.862;2023-04-16T00:02:14;8.73;;;4.97;;
10550;SDS011;5324;50.684;3.862;2023-04-16T00:04:40;9.57;;;4.60;;
10550;SDS011;5324;50.684;3.862;2023-04-16T00:07:06;9.10;;;4.40;;
10550;SDS011;5324;50.684;3.862;2023-04-16T00:09:32;8.13;;;5.30;;
10550;SDS011;5324;50.684;3.862;2023-04-16T00:11:58;10.40;;;4.43;;
10550;SDS011;5324;50.684;3.862;2023-04-16T00:14:24;10.73;;;4.73;;
10550;SDS011;5324;50.684;3.862;2023-04-16T00:16:50;7.27;;;4.40;;
10550;SDS011;5324;50.684;3.862;2023-04-16T00:19:16;8.20;;;4.70;;
10550;SDS011;5324;50.684;3.862;2023-04-16T00:21:43;8.77;;;5.00;;
10550;SDS011;5324;50.684;3.862;2023-04-16T00:24:09;8.50;;;4.57;;
10550;SDS011;5324;50.684;3.862;2023-04-16T00:26:35;8.73;;;5.13;;
10550;SDS011;5324;50.684;3.862;2023-04-16T00:29:01;12.43;;;4.67;;
10550;SDS011;5324;50.684;3.862;2023-04-16T00:31:31;7.27;;;4.10;;
10550;SDS011;5324;50.684;3.862;2023-04-16T00:33:57;8.10;;;3.80;;
10550;SDS011;5324;50.684;3.862;2023-04-16T00:36:24;6.97;;;4.27;;
10550;SDS011;5324;50.684;3.862;2023-04-16T00:38:51;6.27;;;3.90;;
10550;SDS011;5324;50.684;3.862;2023-04-16T00:41:17;10.13;;;4.10;;
10550;SDS011;5324;50.684;3.862;2023-04-16T00:43:43;11.63;;;3.40;;
10550;SDS011;5324;50.684;3.862;2023-04-16T00:46:09;7.00;;;3.50;;
10550;SDS011;5324;50.684;3.862;2023-04-16T00:48:36;8.97;;;3.60;;
10550;SDS011;5324;50.684;3.862;2023-04-16T00:51:06;5.93;;;3.53;;
10550;SDS011;5324;50.684;3.862;2023-04-16T00:53:32;7.50;;;3.50;;
10550;SDS011;5324;50.684;3.862;2023-04-16T00:56:00;6.93;;;2.97;;
10550;SDS011;5324;50.684;3.862;2023-04-16T00:58:27;10.53;;;3.17;;
10550;SDS011;5324;50.684;3.862;2023-04-16T01:00:53;5.17;;;3.30;;
10550;SDS011;5324;50.684;3.862;2023-04-16T01:03:20;4.50;;;3.10;;
10550;SDS011;5324;50.684;3.862;2023-04-16T01:05:46;3.87;;;3.13;;
10550;SDS011;5324;50.684;3.862;2023-04-16T01:08:16;10.00;;;2.80;;
10550;SDS011;5324;50.684;3.862;2023-04-16T01:10:43;4.13;;;2.90;;
10550;SDS011;5324;50.684;3.862;2023-04-16T01:13:09;5.90;;;3.27;;
10550;SDS011;5324;50.684;3.862;2023-04-16T01:15:35;4.17;;;2.90;;
10550;SDS011;5324;50.684;3.862;2023-04-16T01:18:01;4.10;;;3.20;;
10550;SDS011;5324;50.684;3.862;2023-04-16T01:20:27;4.17;;;3.03;;
10550;SDS011;5324;50.684;3.862;2023-04-16T01:22:54;8.73;;;3.30;;
10550;SDS011;5324;50.684;3.862;2023-04-16T01:25:20;4.90;;;3.10;;
10550;SDS011;5324;50.684;3.862;2023-04-16T01:27:48;4.57;;;2.43;;
10550;SDS011;5324;50.684;3.862;2023-04-16T01:30:14;3.20;;;2.37;;
10550;SDS011;5324;50.684;3.862;2023-04-16T01:32:40;6.50;;;3.13;;
10550;SDS011;5324;50.684;3.862;2023-04-16T01:35:06;6.73;;;2.70;;
10550;SDS011;5324;50.684;3.862;2023-04-16T01:37:32;8.63;;;2.90;;
10550;SDS011;5324;50.684;3.862;2023-04-16T01:39:58;6.10;;;3.00;;
10550;SDS011;5324;50.684;3.862;2023-04-16T01:42:24;4.93;;;2.20;;
10550;SDS011;5324;50.684;3.862;2023-04-16T01:44:50;6.03;;;3.07;;
10550;SDS011;5324;50.684;3.862;2023-04-16T01:47:16;8.67;;;2.63;;
10550;SDS011;5324;50.684;3.862;2023-04-16T01:49:43;4.17;;;2.33;;
10550;SDS011;5324;50.684;3.862;2023-04-16T01:52:09;5.27;;;2.60;;
10550;SDS011;5324;50.684;3.862;2023-04-16T01:54:35;4.50;;;2.87;;
10550;SDS011;5324;50.684;3.862;2023-04-16T01:57:01;4.47;;;2.83;;
10550;SDS011;5324;50.684;3.862;2023-04-16T01:59:27;5.67;;;3.03;;
10550;SDS011;5324;50.684;3.862;2023-04-16T02:01:53;3.13;;;2.30;;
10550;SDS011;5324;50.684;3.862;2023-04-16T02:04:19;6.30;;;2.73;;
10550;SDS011;5324;50.684;3.862;2023-04-16T02:06:45;8.00;;;2.73;;
10550;SDS011;5324;50.684;3.862;2023-04-16T02:09:11;5.40;;;2.63;;
10550;SDS011;5324;50.684;3.862;2023-04-16T02:11:38;5.70;;;3.10;;
10550;SDS011;5324;50.684;3.862;2023-04-16T02:14:04;16.00;;;3.47;;
10550;SDS011;5324;50.684;3.862;2023-04-16T02:16:30;3.97;;;2.53;;
10550;SDS011;5324;50.684;3.862;2023-04-16T02:18:56;4.93;;;2.43;;
10550;SDS011;5324;50.684;3.862;2023-04-16T02:21:22;7.47;;;2.77;;
10550;SDS011;5324;50.684;3.862;2023-04-16T02:23:47;3.17;;;2.03;;
10550;SDS011;5324;50.684;3.862;2023-04-16T02:26:15;5.87;;;3.10;;
10550;SDS011;5324;50.684;3.862;2023-04-16T02:28:41;4.80;;;2.63;;
10550;SDS011;5324;50.684;3.862;2023-04-16T02:31:07;4.60;;;2.87;;
10550;SDS011;5324;50.684;3.862;2023-04-16T02:33:33;6.13;;;2.60;;
10550;SDS011;5324;50.684;3.862;2023-04-16T02:35:59;5.57;;;2.50;;
10550;SDS011;5324;50.684;3.862;2023-04-16T02:38:25;8.77;;;2.57;;
10550;SDS011;5324;50.684;3.862;2023-04-16T02:40:51;5.97;;;2.63;;
10550;SDS011;5324;50.684;3.862;2023-04-16T02:43:17;5.73;;;2.77;;
10550;SDS011;5324;50.684;3.862;2023-04-16T02:45:43;6.53;;;2.20;;
10550;SDS011;5324;50.684;3.862;2023-04-16T02:48:10;7.07;;;2.60;;
10550;SDS011;5324;50.684;3.862;2023-04-16T02:50:35;3.10;;;2.30;;
10550;SDS011;5324;50.684;3.862;2023-04-16T02:53:01;5.63;;;1.80;;
10550;SDS011;5324;50.684;3.862;2023-04-16T02:55:28;2.20;;;2.00;;
10550;SDS011;5324;50.684;3.862;2023-04-16T02:57:54;6.77;;;2.43;;
10550;SDS011;5324;50.684;3.862;2023-04-16T03:00:20;3.27;;;1.80;;
10550;SDS011;5324;50.684;3.862;2023-04-16T03:02:46;5.50;;;2.47;;
10550;SDS011;5324;50.684;3.862;2023-04-16T03:05:12;3.77;;;2.10;;
10550;SDS011;5324;50.684;3.862;2023-04-16T03:07:38;7.03;;;2.70;;
10550;SDS011;5324;50.684;3.862;2023-04-16T03:10:05;2.47;;;2.00;;
10550;SDS011;5324;50.684;3.862;2023-04-16T03:12:31;5.17;;;2.30;;
10550;SDS011;5324;50.684;3.862;2023-04-16T03:14:57;7.63;;;2.33;;
10550;SDS011;5324;50.684;3.862;2023-04-16T03:17:23;4.20;;;2.00;;
10550;SDS011;5324;50.684;3.862;2023-04-16T03:19:49;5.90;;;2.07;;
10550;SDS011;5324;50.684;3.862;2023-04-16T03:22:15;4.00;;;2.50;;
10550;SDS011;5324;50.684;3.862;2023-04-16T03:24:41;4.47;;;2.63;;
10550;SDS011;5324;50.684;3.862;2023-04-16T03:27:07;5.10;;;2.17;;
10550;SDS011;5324;50.684;3.862;2023-04-16T03:29:37;7.03;;;2.43;;
10550;SDS011;5324;50.684;3.862;2023-04-16T03:32:03;6.17;;;2.07;;
10550;SDS011;5324;50.684;3.862;2023-04-16T03:34:29;4.97;;;2.00;;
10550;SDS011;5324;50.684;3.862;2023-04-16T03:36:55;4.93;;;2.10;;
10550;SDS011;5324;50.684;3.862;2023-04-16T03:39:20;3.67;;;2.40;;
10550;SDS011;5324;50.684;3.862;2023-04-16T03:41:46;6.00;;;1.63;;
10550;SDS011;5324;50.684;3.862;2023-04-16T03:44:12;2.00;;;1.60;;
10550;SDS011;5324;50.684;3.862;2023-04-16T03:46:38;7.50;;;2.17;;
10550;SDS011;5324;50.684;3.862;2023-04-16T03:49:04;9.23;;;2.13;;
10550;SDS011;5324;50.684;3.862;2023-04-16T03:51:30;3.20;;;1.87;;
10550;SDS011;5324;50.684;3.862;2023-04-16T03:53:56;2.83;;;1.80;;
10550;SDS011;5324;50.684;3.862;2023-04-16T03:56:22;3.00;;;1.83;;
10550;SDS011;5324;50.684;3.862;2023-04-16T03:58:49;5.80;;;2.00;;
10550;SDS011;5324;50.684;3.862;2023-04-16T04:01:15;2.83;;;2.10;;
10550;SDS011;5324;50.684;3.862;2023-04-16T04:03:40;5.53;;;2.87;;
10550;SDS011;5324;50.684;3.862;2023-04-16T04:06:07;7.70;;;3.10;;
10550;SDS011;5324;50.684;3.862;2023-04-16T04:08:33;4.33;;;2.50;;
10550;SDS011;5324;50.684;3.862;2023-04-16T04:10:59;6.47;;;3.03;;
10550;SDS011;5324;50.684;3.862;2023-04-16T04:13:25;6.30;;;3.40;;
10550;SDS011;5324;50.684;3.862;2023-04-16T04:15:51;4.27;;;3.50;;
10550;SDS011;5324;50.684;3.862;2023-04-16T04:18:17;4.47;;;3.40;;
10550;SDS011;5324;50.684;3.862;2023-04-16T04:20:43;6.33;;;3.67;;
10550;SDS011;5324;50.684;3.862;2023-04-16T04:23:09;5.30;;;3.67;;
10550;SDS011;5324;50.684;3.862;2023-04-16T04:25:36;6.57;;;3.40;;
10550;SDS011;5324;50.684;3.862;2023-04-16T04:28:02;4.73;;;3.23;;
10550;SDS011;5324;50.684;3.862;2023-04-16T04:30:28;3.43;;;2.77;;
10550;SDS011;5324;50.684;3.862;2023-04-16T04:32:54;5.67;;;3.67;;
10550;SDS011;5324;50.684;3.862;2023-04-16T04:35:20;5.70;;;3.17;;
10550;SDS011;5324;50.684;3.862;2023-04-16T04:37:46;6.10;;;3.83;;
10550;SDS011;5324;50.684;3.862;2023-04-16T04:40:12;3.57;;;2.97;;
10550;SDS011;5324;50.684;3.862;2023-04-16T04:42:38;4.67;;;2.87;;
10550;SDS011;5324;50.684;3.862;2023-04-16T04:45:04;4.83;;;2.20;;
10550;SDS011;5324;50.684;3.862;2023-04-16T04:47:30;5.07;;;2.50;;
10550;SDS011;5324;50.684;3.862;2023-04-16T04:49:56;3.47;;;2.50;;
10550;SDS011;5324;50.684;3.862;2023-04-16T04:52:22;6.03;;;2.80;;
10550;SDS011;5324;50.684;3.862;2023-04-16T04:54:48;2.73;;;1.90;;
10550;SDS011;5324;50.684;3.862;2023-04-16T04:57:14;4.27;;;2.20;;
10550;SDS011;5324;50.684;3.862;2023-04-16T04:59:40;4.77;;;2.30;;
10550;SDS011;5324;50.684;3.862;2023-04-16T05:02:06;6.10;;;2.00;;
10550;SDS011;5324;50.684;3.862;2023-04-16T05:04:32;5.50;;;2.87;;
10550;SDS011;5324;50.684;3.862;2023-04-16T05:06:58;7.77;;;3.30;;
10550;SDS011;5324;50.684;3.862;2023-04-16T05:09:25;3.23;;;2.30;;
10550;SDS011;5324;50.684;3.862;2023-04-16T05:11:51;4.03;;;2.53;;
10550;SDS011;5324;50.684;3.862;2023-04-16T05:14:17;3.93;;;2.23;;
10550;SDS011;5324;50.684;3.862;2023-04-16T05:16:43;5.73;;;2.10;;
10550;SDS011;5324;50.684;3.862;2023-04-16T05:19:09;4.23;;;2.43;;
10550;SDS011;5324;50.684;3.862;2023-04-16T05:21:35;8.87;;;2.63;;
10550;SDS011;5324;50.684;3.862;2023-04-16T05:24:01;3.23;;;2.43;;
10550;SDS011;5324;50.684;3.862;2023-04-16T05:26:27;3.43;;;2.60;;
10550;SDS011;5324;50.684;3.862;2023-04-16T05:28:53;4.80;;;2.57;;
10550;SDS011;5324;50.684;3.862;2023-04-16T05:31:19;2.53;;;2.33;;
10550;SDS011;5324;50.684;3.862;2023-04-16T05:33:46;3.67;;;2.63;;
10550;SDS011;5324;50.684;3.862;2023-04-16T05:36:12;3.40;;;2.50;;
10550;SDS011;5324;50.684;3.862;2023-04-16T05:38:38;7.07;;;2.30;;
10550;SDS011;5324;50.684;3.862;2023-04-16T05:41:04;6.90;;;2.27;;
10550;SDS011;5324;50.684;3.862;2023-04-16T05:43:30;7.13;;;2.43;;
10550;SDS011;5324;50.684;3.862;2023-04-16T05:45:56;2.43;;;1.83;;
10550;SDS011;5324;50.684;3.862;2023-04-16T05:48:22;4.40;;;1.87;;
10550;SDS011;5324;50.684;3.862;2023-04-16T05:50:48;4.10;;;2.00;;
10550;SDS011;5324;50.684;3.862;2023-04-16T05:53:14;2.63;;;1.70;;
10550;SDS011;5324;50.684;3.862;2023-04-16T05:55:42;4.37;;;2.13;;
10550;SDS011;5324;50.684;3.862;2023-04-16T05:58:08;4.37;;;1.63;;
10550;SDS011;5324;50.684;3.862;2023-04-16T06:00:34;3.10;;;1.70;;
10550;SDS011;5324;50.684;3.862;2023-04-16T06:03:01;3.23;;;1.70;;
10550;SDS011;5324;50.684;3.862;2023-04-16T06:05:27;2.83;;;1.50;;
10550;SDS011;5324;50.684;3.862;2023-04-16T06:07:53;4.97;;;1.90;;
10550;SDS011;5324;50.684;3.862;2023-04-16T06:10:20;3.40;;;2.03;;
10550;SDS011;5324;50.684;3.862;2023-04-16T06:12:45;2.90;;;1.93;;
10550;SDS011;5324;50.684;3.862;2023-04-16T06:15:11;5.67;;;2.03;;
10550;SDS011;5324;50.684;3.862;2023-04-16T06:17:37;2.33;;;1.73;;
10550;SDS011;5324;50.684;3.862;2023-04-16T06:20:04;4.50;;;2.10;;
10550;SDS011;5324;50.684;3.862;2023-04-16T06:22:30;3.53;;;1.97;;
10550;SDS011;5324;50.684;3.862;2023-04-16T06:24:56;2.67;;;2.17;;
10550;SDS011;5324;50.684;3.862;2023-04-16T06:27:22;5.77;;;2.30;;
10550;SDS011;5324;50.684;3.862;2023-04-16T06:29:48;3.93;;;2.83;;
10550;SDS011;5324;50.684;3.862;2023-04-16T06:32:14;4.53;;;2.47;;
10550;SDS011;5324;50.684;3.862;2023-04-16T06:34:41;4.63;;;2.83;;
10550;SDS011;5324;50.684;3.862;2023-04-16T06:37:07;7.40;;;3.27;;
10550;SDS011;5324;50.684;3.862;2023-04-16T06:39:33;5.73;;;3.07;;
10550;SDS011;5324;50.684;3.862;2023-04-16T06:41:59;3.97;;;3.43;;
10550;SDS011;5324;50.684;3.862;2023-04-16T06:44:25;3.40;;;2.90;;
10550;SDS011;5324;50.684;3.862;2023-04-16T06:46:51;6.20;;;3.17;;
10550;SDS011;5324;50.684;3.862;2023-04-16T06:49:17;3.43;;;2.60;;
10550;SDS011;5324;50.684;3.862;2023-04-16T06:51:43;5.60;;;3.07;;
10550;SDS011;5324;50.684;3.862;2023-04-16T06:54:09;3.87;;;3.40;;
10550;SDS011;5324;50.684;3.862;2023-04-16T06:56:35;4.70;;;3.97;;
10550;SDS011;5324;50.684;3.862;2023-04-16T06:59:01;6.57;;;4.60;;
10550;SDS011;5324;50.684;3.862;2023-04-16T07:01:27;4.97;;;4.47;;
10550;SDS011;5324;50.684;3.862;2023-04-16T07:03:55;7.13;;;4.57;;
10550;SDS011;5324;50.684;3.862;2023-04-16T07:06:21;8.53;;;4.70;;
10550;SDS011;5324;50.684;3.862;2023-04-16T07:08:47;8.00;;;5.17;;
10550;SDS011;5324;50.684;3.862;2023-04-16T07:11:13;8.67;;;4.77;;
10550;SDS011;5324;50.684;3.862;2023-04-16T07:13:39;8.93;;;5.03;;
10550;SDS011;5324;50.684;3.862;2023-04-16T07:16:05;6.63;;;4.97;;
10550;SDS011;5324;50.684;3.862;2023-04-16T07:18:31;9.43;;;4.57;;
10550;SDS011;5324;50.684;3.862;2023-04-16T07:20:57;6.97;;;4.73;;
10550;SDS011;5324;50.684;3.862;2023-04-16T07:23:23;6.93;;;4.77;;
10550;SDS011;5324;50.684;3.862;2023-04-16T07:25:49;10.37;;;4.73;;
10550;SDS011;5324;50.684;3.862;2023-04-16T07:28:15;5.33;;;4.33;;
10550;SDS011;5324;50.684;3.862;2023-04-16T07:30:41;7.60;;;4.70;;
10550;SDS011;5324;50.684;3.862;2023-04-16T07:33:08;5.17;;;4.23;;
10550;SDS011;5324;50.684;3.862;2023-04-16T07:35:34;9.10;;;4.50;;
10550;SDS011;5324;50.684;3.862;2023-04-16T07:38:00;7.43;;;5.00;;
10550;SDS011;5324;50.684;3.862;2023-04-16T07:40:26;6.90;;;4.33;;
10550;SDS011;5324;50.684;3.862;2023-04-16T07:42:52;4.90;;;4.07;;
10550;SDS011;5324;50.684;3.862;2023-04-16T07:45:19;7.63;;;4.63;;
10550;SDS011;5324;50.684;3.862;2023-04-16T07:47:45;6.73;;;4.77;;
10550;SDS011;5324;50.684;3.862;2023-04-16T07:50:11;10.13;;;5.10;;
10550;SDS011;5324;50.684;3.862;2023-04-16T07:52:37;6.93;;;4.27;;
10550;SDS011;5324;50.684;3.862;2023-04-16T07:55:06;7.33;;;4.17;;
10550;SDS011;5324;50.684;3.862;2023-04-16T07:57:32;4.90;;;3.73;;
10550;SDS011;5324;50.684;3.862;2023-04-16T07:59:58;6.93;;;4.00;;
10550;SDS011;5324;50.684;3.862;2023-04-16T08:02:26;8.97;;;4.90;;
10550;SDS011;5324;50.684;3.862;2023-04-16T08:04:52;7.10;;;4.60;;
10550;SDS011;5324;50.684;3.862;2023-04-16T08:07:18;7.73;;;4.50;;
10550;SDS011;5324;50.684;3.862;2023-04-16T08:09:47;8.37;;;4.33;;
10550;SDS011;5324;50.684;3.862;2023-04-16T08:12:15;5.40;;;4.10;;
10550;SDS011;5324;50.684;3.862;2023-04-16T08:14:44;10.43;;;3.93;;
10550;SDS011;5324;50.684;3.862;2023-04-16T08:17:11;6.80;;;4.20;;
10550;SDS011;5324;50.684;3.862;2023-04-16T08:19:37;6.70;;;3.90;;
10550;SDS011;5324;50.684;3.862;2023-04-16T08:22:03;7.37;;;4.60;;
10550;SDS011;5324;50.684;3.862;2023-04-16T08:24:29;10.60;;;4.23;;
10550;SDS011;5324;50.684;3.862;2023-04-16T08:26:56;7.40;;;4.03;;
10550;SDS011;5324;50.684;3.862;2023-04-16T08:29:22;5.73;;;4.33;;
10550;SDS011;5324;50.684;3.862;2023-04-16T08:31:51;5.13;;;3.07;;
10550;SDS011;5324;50.684;3.862;2023-04-16T08:34:18;7.27;;;3.30;;
10550;SDS011;5324;50.684;3.862;2023-04-16T08:36:44;5.70;;;3.90;;
10550;SDS011;5324;50.684;3.862;2023-04-16T08:39:10;5.63;;;3.47;;
10550;SDS011;5324;50.684;3.862;2023-04-16T08:41:37;7.47;;;3.80;;
10550;SDS011;5324;50.684;3.862;2023-04-16T08:44:05;7.73;;;3.90;;
10550;SDS011;5324;50.684;3.862;2023-04-16T08:46:32;6.17;;;4.00;;
10550;SDS011;5324;50.684;3.862;2023-04-16T08:49:01;6.97;;;3.80;;
10550;SDS011;5324;50.684;3.862;2023-04-16T08:51:29;5.67;;;3.03;;
10550;SDS011;5324;50.684;3.862;2023-04-16T08:54:00;5.23;;;3.60;;
10550;SDS011;5324;50.684;3.862;2023-04-16T08:56:28;8.97;;;3.27;;
10550;SDS011;5324;50.684;3.862;2023-04-16T08:58:56;7.03;;;3.50;;
10550;SDS011;5324;50.684;3.862;2023-04-16T09:01:24;6.80;;;5.50;;
10550;SDS011;5324;50.684;3.862;2023-04-16T09:03:51;9.27;;;5.37;;
10550;SDS011;5324;50.684;3.862;2023-04-16T09:06:17;7.87;;;4.80;;
10550;SDS011;5324;50.684;3.862;2023-04-16T09:08:44;6.43;;;4.43;;
10550;SDS011;5324;50.684;3.862;2023-04-16T09:11:12;8.47;;;5.60;;
10550;SDS011;5324;50.684;3.862;2023-04-16T09:13:38;8.13;;;4.80;;
10550;SDS011;5324;50.684;3.862;2023-04-16T09:16:04;5.47;;;4.07;;
10550;SDS011;5324;50.684;3.862;2023-04-16T09:18:31;7.77;;;4.23;;
10550;SDS011;5324;50.684;3.862;2023-04-16T09:20:57;5.90;;;4.37;;
10550;SDS011;5324;50.684;3.862;2023-04-16T09:23:24;7.43;;;4.37;;
10550;SDS011;5324;50.684;3.862;2023-04-16T09:25:50;6.37;;;4.17;;
10550;SDS011;5324;50.684;3.862;2023-04-16T09:31:09;5.37;;;4.20;;
10550;SDS011;5324;50.684;3.862;2023-04-16T09:33:37;6.10;;;4.17;;
10550;SDS011;5324;50.684;3.862;2023-04-16T09:36:04;9.43;;;4.60;;
10550;SDS011;5324;50.684;3.862;2023-04-16T09:38:49;6.63;;;4.73;;
10550;SDS011;5324;50.684;3.862;2023-04-16T09:41:16;7.50;;;4.13;;
10550;SDS011;5324;50.684;3.862;2023-04-16T09:43:52;6.17;;;5.07;;
10550;SDS011;5324;50.684;3.862;2023-04-16T09:46:20;5.13;;;4.10;;
10550;SDS011;5324;50.684;3.862;2023-04-16T09:48:46;8.53;;;4.80;;
10550;SDS011;5324;50.684;3.862;2023-04-16T09:51:12;5.83;;;4.03;;
10550;SDS011;5324;50.684;3.862;2023-04-16T09:53:38;4.97;;;4.07;;
10550;SDS011;5324;50.684;3.862;2023-04-16T09:56:05;6.77;;;3.93;;
10550;SDS011;5324;50.684;3.862;2023-04-16T09:58:31;8.03;;;4.30;;
10550;SDS011;5324;50.684;3.862;2023-04-16T10:01:10;5.40;;;4.13;;
10550;SDS011;5324;50.684;3.862;2023-04-16T10:03:38;5.60;;;4.27;;
10550;SDS011;5324;50.684;3.862;2023-04-16T10:06:17;7.53;;;3.90;;
10550;SDS011;5324;50.684;3.862;2023-04-16T10:08:47;7.53;;;4.00;;
10550;SDS011;5324;50.684;3.862;2023-04-16T10:11:14;5.73;;;4.07;;
10550;SDS011;5324;50.684;3.862;2023-04-16T10:13:40;6.23;;;4.33;;
10550;SDS011;5324;50.684;3.862;2023-04-16T10:16:07;5.03;;;3.83;;
10550;SDS011;5324;50.684;3.862;2023-04-16T10:18:40;7.30;;;4.07;;
10550;SDS011;5324;50.684;3.862;2023-04-16T10:21:07;10.67;;;4.67;;
10550;SDS011;5324;50.684;3.862;2023-04-16T10:23:35;8.07;;;5.30;;
10550;SDS011;5324;50.684;3.862;2023-04-16T10:26:03;7.23;;;4.93;;
10550;SDS011;5324;50.684;3.862;2023-04-16T10:28:30;5.97;;;4.73;;
10550;SDS011;5324;50.684;3.862;2023-04-16T10:30:59;10.47;;;5.43;;
10550;SDS011;5324;50.684;3.862;2023-04-16T10:33:27;12.37;;;5.53;;
10550;SDS011;5324;50.684;3.862;2023-04-16T10:36:06;13.10;;;7.10;;
10550;SDS011;5324;50.684;3.862;2023-04-16T10:38:37;12.80;;;7.80;;
10550;SDS011;5324;50.684;3.862;2023-04-16T10:41:03;13.53;;;8.47;;
10550;SDS011;5324;50.684;3.862;2023-04-16T10:43:30;10.77;;;7.07;;
10550;SDS011;5324;50.684;3.862;2023-04-16T10:45:56;11.17;;;7.50;;
10550;SDS011;5324;50.684;3.862;2023-04-16T10:48:24;8.53;;;6.37;;
10550;SDS011;5324;50.684;3.862;2023-04-16T10:50:54;12.83;;;7.30;;
10550;SDS011;5324;50.684;3.862;2023-04-16T10:53:27;9.20;;;6.67;;
10550;SDS011;5324;50.684;3.862;2023-04-16T10:55:55;8.40;;;6.10;;
10550;SDS011;5324;50.684;3.862;2023-04-16T10:58:31;7.40;;;5.50;;
10550;SDS011;5324;50.684;3.862;2023-04-16T11:01:00;8.67;;;5.63;;
10550;SDS011;5324;50.684;3.862;2023-04-16T11:03:30;7.10;;;5.83;;
10550;SDS011;5324;50.684;3.862;2023-04-16T11:08:39;8.50;;;4.53;;
10550;SDS011;5324;50.684;3.862;2023-04-16T11:11:06;5.67;;;4.63;;
10550;SDS011;5324;50.684;3.862;2023-04-16T11:13:32;6.73;;;4.50;;
10550;SDS011;5324;50.684;3.862;2023-04-16T11:15:59;7.63;;;4.10;;
10550;SDS011;5324;50.684;3.862;2023-04-16T11:18:26;6.63;;;4.00;;
10550;SDS011;5324;50.684;3.862;2023-04-16T11:20:52;6.77;;;4.20;;
10550;SDS011;5324;50.684;3.862;2023-04-16T11:23:18;4.73;;;4.07;;
10550;SDS011;5324;50.684;3.862;2023-04-16T11:25:44;5.77;;;4.10;;
10550;SDS011;5324;50.684;3.862;2023-04-16T11:28:10;6.77;;;4.10;;
10550;SDS011;5324;50.684;3.862;2023-04-16T11:30:37;5.43;;;3.80;;
10550;SDS011;5324;50.684;3.862;2023-04-16T11:35:29;5.13;;;3.73;;
10550;SDS011;5324;50.684;3.862;2023-04-16T11:37:56;4.57;;;3.70;;
10550;SDS011;5324;50.684;3.862;2023-04-16T11:40:22;6.70;;;4.83;;
10550;SDS011;5324;50.684;3.862;2023-04-16T11:42:49;5.83;;;4.70;;
10550;SDS011;5324;50.684;3.862;2023-04-16T11:45:15;7.13;;;4.70;;
10550;SDS011;5324;50.684;3.862;2023-04-16T11:47:47;7.10;;;4.33;;
10550;SDS011;5324;50.684;3.862;2023-04-16T11:50:16;8.10;;;4.47;;
10550;SDS011;5324;50.684;3.862;2023-04-16T11:52:42;7.40;;;5.10;;
10550;SDS011;5324;50.684;3.862;2023-04-16T11:55:08;6.07;;;4.47;;
10550;SDS011;5324;50.684;3.862;2023-04-16T11:57:34;8.47;;;4.83;;
10550;SDS011;5324;50.684;3.862;2023-04-16T12:00:02;6.60;;;5.33;;
10550;SDS011;5324;50.684;3.862;2023-04-16T12:02:36;8.43;;;6.37;;
10550;SDS011;5324;50.684;3.862;2023-04-16T12:05:03;9.03;;;6.07;;
10550;SDS011;5324;50.684;3.862;2023-04-16T12:07:29;7.17;;;6.37;;
10550;SDS011;5324;50.684;3.862;2023-04-16T12:10:05;6.33;;;5.73;;
10550;SDS011;5324;50.684;3.862;2023-04-16T12:12:32;9.43;;;6.80;;
10550;SDS011;5324;50.684;3.862;2023-04-16T12:15:00;11.40;;;7.63;;
10550;SDS011;5324;50.684;3.862;2023-04-16T12:17:32;11.67;;;8.03;;
10550;SDS011;5324;50.684;3.862;2023-04-16T12:20:00;12.10;;;8.33;;
10550;SDS011;5324;50.684;3.862;2023-04-16T12:22:31;12.07;;;8.37;;
10550;SDS011;5324;50.684;3.862;2023-04-16T12:25:01;11.43;;;7.60;;
10550;SDS011;5324;50.684;3.862;2023-04-16T12:30:15;13.43;;;8.87;;
10550;SDS011;5324;50.684;3.862;2023-04-16T12:32:42;13.47;;;9.03;;
10550;SDS011;5324;50.684;3.862;2023-04-16T12:35:08;12.23;;;7.73;;
10550;SDS011;5324;50.684;3.862;2023-04-16T12:37:35;9.93;;;7.63;;
10550;SDS011;5324;50.684;3.862;2023-04-16T12:40:01;13.27;;;8.37;;
10550;SDS011;5324;50.684;3.862;2023-04-16T12:42:29;15.00;;;8.20;;
10550;SDS011;5324;50.684;3.862;2023-04-16T12:44:59;12.73;;;8.33;;
10550;SDS011;5324;50.684;3.862;2023-04-16T12:47:26;12.50;;;7.70;;
10550;SDS011;5324;50.684;3.862;2023-04-16T12:49:53;12.30;;;7.37;;
10550;SDS011;5324;50.684;3.862;2023-04-16T12:52:21;17.37;;;7.80;;
10550;SDS011;5324;50.684;3.862;2023-04-16T12:54:47;11.83;;;7.37;;
10550;SDS011;5324;50.684;3.862;2023-04-16T12:57:13;9.10;;;6.37;;
10550;SDS011;5324;50.684;3.862;2023-04-16T12:59:40;11.77;;;7.40;;
10550;SDS011;5324;50.684;3.862;2023-04-16T13:02:06;10.33;;;6.63;;
10550;SDS011;5324;50.684;3.862;2023-04-16T13:04:32;12.20;;;7.27;;
10550;SDS011;5324;50.684;3.862;2023-04-16T13:06:58;10.20;;;6.80;;
10550;SDS011;5324;50.684;3.862;2023-04-16T13:09:25;11.47;;;7.50;;
10550;SDS011;5324;50.684;3.862;2023-04-16T13:11:51;11.60;;;7.17;;
10550;SDS011;5324;50.684;3.862;2023-04-16T13:14:18;14.07;;;7.73;;
10550;SDS011;5324;50.684;3.862;2023-04-16T13:16:45;12.87;;;8.20;;
10550;SDS011;5324;50.684;3.862;2023-04-16T13:19:11;15.43;;;7.70;;
10550;SDS011;5324;50.684;3.862;2023-04-16T13:21:37;11.47;;;6.93;;
10550;SDS011;5324;50.684;3.862;2023-04-16T13:24:03;9.07;;;6.13;;
10550;SDS011;5324;50.684;3.862;2023-04-16T13:26:29;9.30;;;6.90;;
10550;SDS011;5324;50.684;3.862;2023-04-16T13:28:55;12.23;;;5.90;;
10550;SDS011;5324;50.684;3.862;2023-04-16T13:31:21;8.17;;;5.33;;
10550;SDS011;5324;50.684;3.862;2023-04-16T13:33:49;4.97;;;4.40;;
10550;SDS011;5324;50.684;3.862;2023-04-16T13:36:16;7.80;;;6.07;;
10550;SDS011;5324;50.684;3.862;2023-04-16T13:38:42;8.57;;;6.23;;
10550;SDS011;5324;50.684;3.862;2023-04-16T13:41:08;11.27;;;7.53;;
10550;SDS011;5324;50.684;3.862;2023-04-16T13:43:36;10.23;;;6.60;;
10550;SDS011;5324;50.684;3.862;2023-04-16T13:46:02;10.43;;;6.70;;
10550;SDS011;5324;50.684;3.862;2023-04-16T13:48:28;10.83;;;7.33;;
10550;SDS011;5324;50.684;3.862;2023-04-16T13:50:54;9.47;;;6.53;;
10550;SDS011;5324;50.684;3.862;2023-04-16T13:53:22;12.23;;;6.57;;
10550;SDS011;5324;50.684;3.862;2023-04-16T13:55:48;12.53;;;7.17;;
10550;SDS011;5324;50.684;3.862;2023-04-16T13:58:15;8.47;;;6.10;;
10550;SDS011;5324;50.684;3.862;2023-04-16T14:00:41;13.57;;;6.70;;
10550;SDS011;5324;50.684;3.862;2023-04-16T14:03:07;18.50;;;7.00;;
10550;SDS011;5324;50.684;3.862;2023-04-16T14:05:33;10.80;;;6.40;;
10550;SDS011;5324;50.684;3.862;2023-04-16T14:07:59;10.07;;;6.50;;
10550;SDS011;5324;50.684;3.862;2023-04-16T14:10:25;13.10;;;6.30;;
10550;SDS011;5324;50.684;3.862;2023-04-16T14:12:51;9.10;;;6.20;;
10550;SDS011;5324;50.684;3.862;2023-04-16T14:15:17;11.80;;;6.47;;
10550;SDS011;5324;50.684;3.862;2023-04-16T14:17:43;10.23;;;6.00;;
10550;SDS011;5324;50.684;3.862;2023-04-16T14:20:10;11.10;;;6.23;;
10550;SDS011;5324;50.684;3.862;2023-04-16T14:22:37;10.83;;;5.43;;
10550;SDS011;5324;50.684;3.862;2023-04-16T14:25:04;10.87;;;5.80;;
10550;SDS011;5324;50.684;3.862;2023-04-16T14:27:31;8.87;;;5.53;;
10550;SDS011;5324;50.684;3.862;2023-04-16T14:29:58;8.80;;;6.10;;
10550;SDS011;5324;50.684;3.862;2023-04-16T14:32:24;9.40;;;5.93;;
10550;SDS011;5324;50.684;3.862;2023-04-16T14:34:52;10.17;;;6.10;;
10550;SDS011;5324;50.684;3.862;2023-04-16T14:37:18;8.57;;;5.47;;
10550;SDS011;5324;50.684;3.862;2023-04-16T14:39:44;12.70;;;5.83;;
10550;SDS011;5324;50.684;3.862;2023-04-16T14:42:10;8.90;;;5.70;;
10550;SDS011;5324;50.684;3.862;2023-04-16T14:44:36;10.50;;;5.63;;
10550;SDS011;5324;50.684;3.862;2023-04-16T14:47:02;8.50;;;5.57;;
10550;SDS011;5324;50.684;3.862;2023-04-16T14:49:28;10.70;;;5.73;;
10550;SDS011;5324;50.684;3.862;2023-04-16T14:51:54;9.57;;;5.83;;
10550;SDS011;5324;50.684;3.862;2023-04-16T14:54:20;8.30;;;4.70;;
10550;SDS011;5324;50.684;3.862;2023-04-16T14:56:47;8.63;;;5.27;;
10550;SDS011;5324;50.684;3.862;2023-04-16T14:59:17;7.53;;;4.67;;
10550;SDS011;5324;50.684;3.862;2023-04-16T15:01:43;5.70;;;3.53;;
10550;SDS011;5324;50.684;3.862;2023-04-16T15:04:10;9.57;;;5.23;;
10550;SDS011;5324;50.684;3.862;2023-04-16T15:06:36;8.20;;;4.80;;